Terminal Aerodrome Forecast
Issued by NWS

Home | Current Version | Previous Version | Text Only | Print | Product List | Glossary On
Versions: 1 2 3 4 5 6 7 8 9 10 11 12 13 14 15
347
FTUS45 KRIW 301815 AAA
TAFCOD
TAF AMD
KCOD 301815Z 3018/3118 02012G20KT P6SM VCTS SCT050CB BKN070
      TEMPO 3018/3021 VRB15G25KT -TSRA BKN050CB
     FM310000 01012G20KT P6SM VCSH BKN050
     FM310200 36008KT P6SM BKN035
     FM310600 28011KT P6SM SCT070
     FM311600 02011KT P6SM SCT060
      AMD LTD TO CLD VIS AND WIND=

USA.gov is the U.S. government's official web portal to all federal, state and local government web resources and services.